sensor_id;sensor_type;location;lat;lon;timestamp;pressure;altitude;pressure_sealevel;temperature;humidity
12172;BME280;6149;52.418;13.668;2023-02-10T00:02:10;102767.34;;;-1.13;96.23
12172;BME280;6149;52.418;13.668;2023-02-10T00:04:37;102765.63;;;-1.11;96.85
12172;BME280;6149;52.418;13.668;2023-02-10T00:07:05;102767.34;;;-1.11;96.72
12172;BME280;6149;52.418;13.668;2023-02-10T00:09:32;102764.91;;;-1.07;96.04
12172;BME280;6149;52.418;13.668;2023-02-10T00:11:58;102765.72;;;-1.08;96.56
12172;BME280;6149;52.418;13.668;2023-02-10T00:14:30;102765.63;;;-1.11;96.83
12172;BME280;6149;52.418;13.668;2023-02-10T00:16:56;102775.22;;;-1.08;96.67
12172;BME280;6149;52.418;13.668;2023-02-10T00:19:25;102775.28;;;-1.07;96.97
12172;BME280;6149;52.418;13.668;2023-02-10T00:21:52;102770.19;;;-1.04;96.40
12172;BME280;6149;52.418;13.668;2023-02-10T00:24:20;102772.13;;;-0.96;96.33
12172;BME280;6149;52.418;13.668;2023-02-10T00:26:47;102776.38;;;-0.98;96.28
12172;BME280;6149;52.418;13.668;2023-02-10T00:29:13;102774.16;;;-0.86;96.09
12172;BME280;6149;52.418;13.668;2023-02-10T00:31:40;102781.75;;;-0.92;96.07
12172;BME280;6149;52.418;13.668;2023-02-10T00:34:10;102779.16;;;-0.92;96.28
12172;BME280;6149;52.418;13.668;2023-02-10T00:36:37;102780.00;;;-0.93;96.15
12172;BME280;6149;52.418;13.668;2023-02-10T00:39:04;102762.94;;;-0.85;96.08
12172;BME280;6149;52.418;13.668;2023-02-10T00:41:32;102773.47;;;-0.81;95.97
12172;BME280;6149;52.418;13.668;2023-02-10T00:43:59;102785.41;;;-0.86;95.77
12172;BME280;6149;52.418;13.668;2023-02-10T00:46:25;102777.72;;;-0.83;95.94
12172;BME280;6149;52.418;13.668;2023-02-10T00:48:52;102775.16;;;-0.81;97.08
12172;BME280;6149;52.418;13.668;2023-02-10T00:51:18;102779.56;;;-0.79;96.27
12172;BME280;6149;52.418;13.668;2023-02-10T00:53:45;102784.78;;;-0.79;96.39
12172;BME280;6149;52.418;13.668;2023-02-10T00:56:15;102780.44;;;-0.78;96.74
12172;BME280;6149;52.418;13.668;2023-02-10T00:58:44;102780.72;;;-0.68;95.92
12172;BME280;6149;52.418;13.668;2023-02-10T01:01:12;102785.97;;;-0.66;94.98
12172;BME280;6149;52.418;13.668;2023-02-10T01:03:39;102778.88;;;-0.72;96.14
12172;BME280;6149;52.418;13.668;2023-02-10T01:06:06;102784.16;;;-0.69;95.95
12172;BME280;6149;52.418;13.668;2023-02-10T01:08:34;102789.28;;;-0.72;96.20
12172;BME280;6149;52.418;13.668;2023-02-10T01:11:01;102783.31;;;-0.68;95.46
12172;BME280;6149;52.418;13.668;2023-02-10T01:13:29;102783.41;;;-0.64;96.06
12172;BME280;6149;52.418;13.668;2023-02-10T01:15:57;102782.50;;;-0.67;96.26
12172;BME280;6149;52.418;13.668;2023-02-10T01:18:23;102781.63;;;-0.67;96.76
12172;BME280;6149;52.418;13.668;2023-02-10T01:20:50;102791.03;;;-0.71;97.23
12172;BME280;6149;52.418;13.668;2023-02-10T01:23:17;102787.88;;;-0.60;96.79
12172;BME280;6149;52.418;13.668;2023-02-10T01:25:43;102788.63;;;-0.64;97.42
12172;BME280;6149;52.418;13.668;2023-02-10T01:28:10;102784.56;;;-0.55;96.52
12172;BME280;6149;52.418;13.668;2023-02-10T01:30:37;102787.03;;;-0.59;97.02
12172;BME280;6149;52.418;13.668;2023-02-10T01:33:05;102788.00;;;-0.56;96.80
12172;BME280;6149;52.418;13.668;2023-02-10T01:35:31;102796.63;;;-0.57;97.30
12172;BME280;6149;52.418;13.668;2023-02-10T01:37:58;102790.50;;;-0.59;97.42
12172;BME280;6149;52.418;13.668;2023-02-10T01:40:25;102795.91;;;-0.51;96.84
12172;BME280;6149;52.418;13.668;2023-02-10T01:42:52;102800.19;;;-0.53;97.35
12172;BME280;6149;52.418;13.668;2023-02-10T01:45:22;102796.66;;;-0.55;97.01
12172;BME280;6149;52.418;13.668;2023-02-10T01:47:52;102793.94;;;-0.60;97.54
12172;BME280;6149;52.418;13.668;2023-02-10T01:50:23;102799.25;;;-0.55;96.36
12172;BME280;6149;52.418;13.668;2023-02-10T01:52:53;102791.16;;;-0.66;97.39
12172;BME280;6149;52.418;13.668;2023-02-10T01:55:24;102780.53;;;-0.75;98.22
12172;BME280;6149;52.418;13.668;2023-02-10T01:57:54;102775.31;;;-0.77;97.76
12172;BME280;6149;52.418;13.668;2023-02-10T02:00:22;102779.53;;;-0.80;97.80
12172;BME280;6149;52.418;13.668;2023-02-10T02:02:49;102782.22;;;-0.77;97.54
12172;BME280;6149;52.418;13.668;2023-02-10T02:05:27;102788.81;;;-0.88;97.96
12172;BME280;6149;52.418;13.668;2023-02-10T02:07:57;102791.19;;;-0.96;98.57
12172;BME280;6149;52.418;13.668;2023-02-10T02:10:37;102791.91;;;-1.00;98.70
12172;BME280;6149;52.418;13.668;2023-02-10T02:13:12;102792.78;;;-0.99;98.62
12172;BME280;6149;52.418;13.668;2023-02-10T02:15:46;102795.13;;;-1.09;98.65
12172;BME280;6149;52.418;13.668;2023-02-10T02:18:22;102791.44;;;-1.17;99.61
12172;BME280;6149;52.418;13.668;2023-02-10T02:21:13;102804.19;;;-1.24;99.36
12172;BME280;6149;52.418;13.668;2023-02-10T02:24:11;102802.16;;;-1.33;100.00
12172;BME280;6149;52.418;13.668;2023-02-10T02:26:55;102808.03;;;-1.39;100.00
12172;BME280;6149;52.418;13.668;2023-02-10T02:29:49;102811.44;;;-1.41;100.00
12172;BME280;6149;52.418;13.668;2023-02-10T02:32:33;102812.03;;;-1.50;100.00
12172;BME280;6149;52.418;13.668;2023-02-10T02:35:03;102807.53;;;-1.55;100.00
12172;BME280;6149;52.418;13.668;2023-02-10T02:37:33;102805.66;;;-1.59;100.00
12172;BME280;6149;52.418;13.668;2023-02-10T02:40:03;102802.00;;;-1.66;100.00
12172;BME280;6149;52.418;13.668;2023-02-10T02:42:32;102807.03;;;-1.71;100.00
12172;BME280;6149;52.418;13.668;2023-02-10T02:45:02;102806.00;;;-1.76;100.00
12172;BME280;6149;52.418;13.668;2023-02-10T02:47:44;102805.00;;;-1.79;100.00
12172;BME280;6149;52.418;13.668;2023-02-10T02:50:23;102806.66;;;-1.81;100.00
12172;BME280;6149;52.418;13.668;2023-02-10T02:53:01;102799.66;;;-1.84;100.00
12172;BME280;6149;52.418;13.668;2023-02-10T02:55:43;102797.91;;;-1.85;100.00
12172;BME280;6149;52.418;13.668;2023-02-10T02:58:22;102807.22;;;-1.91;100.00
12172;BME280;6149;52.418;13.668;2023-02-10T03:00:57;102811.25;;;-1.99;100.00
12172;BME280;6149;52.418;13.668;2023-02-10T03:03:31;102807.47;;;-2.09;100.00
12172;BME280;6149;52.418;13.668;2023-02-10T03:05:58;102810.72;;;-2.15;100.00
12172;BME280;6149;52.418;13.668;2023-02-10T03:08:25;102809.72;;;-2.18;100.00
12172;BME280;6149;52.418;13.668;2023-02-10T03:10:52;102808.91;;;-2.17;100.00
12172;BME280;6149;52.418;13.668;2023-02-10T03:13:18;102811.31;;;-2.23;100.00
12172;BME280;6149;52.418;13.668;2023-02-10T03:15:45;102807.78;;;-2.25;100.00
12172;BME280;6149;52.418;13.668;2023-02-10T03:18:11;102813.84;;;-2.25;100.00
12172;BME280;6149;52.418;13.668;2023-02-10T03:20:39;102824.06;;;-2.29;100.00
12172;BME280;6149;52.418;13.668;2023-02-10T03:23:06;102828.34;;;-2.30;100.00
12172;BME280;6149;52.418;13.668;2023-02-10T03:25:33;102814.47;;;-2.32;100.00
12172;BME280;6149;52.418;13.668;2023-02-10T03:27:59;102818.88;;;-2.29;100.00
12172;BME280;6149;52.418;13.668;2023-02-10T03:30:27;102822.22;;;-2.32;100.00
12172;BME280;6149;52.418;13.668;2023-02-10T03:32:53;102819.88;;;-2.26;100.00
12172;BME280;6149;52.418;13.668;2023-02-10T03:35:21;102821.50;;;-2.28;100.00
12172;BME280;6149;52.418;13.668;2023-02-10T03:37:50;102820.63;;;-2.28;100.00
12172;BME280;6149;52.418;13.668;2023-02-10T03:40:16;102818.75;;;-2.32;100.00
12172;BME280;6149;52.418;13.668;2023-02-10T03:42:43;102825.59;;;-2.34;100.00
12172;BME280;6149;52.418;13.668;2023-02-10T03:45:09;102829.84;;;-2.37;100.00
12172;BME280;6149;52.418;13.668;2023-02-10T03:47:36;102829.06;;;-2.34;100.00
12172;BME280;6149;52.418;13.668;2023-02-10T03:50:03;102834.31;;;-2.32;100.00
12172;BME280;6149;52.418;13.668;2023-02-10T03:52:30;102836.78;;;-2.36;100.00
12172;BME280;6149;52.418;13.668;2023-02-10T03:54:58;102851.38;;;-2.38;100.00
12172;BME280;6149;52.418;13.668;2023-02-10T03:57:24;102844.56;;;-2.36;100.00
12172;BME280;6149;52.418;13.668;2023-02-10T03:59:51;102854.59;;;-2.19;100.00
12172;BME280;6149;52.418;13.668;2023-02-10T04:02:17;102847.31;;;-2.31;100.00
12172;BME280;6149;52.418;13.668;2023-02-10T04:04:44;102849.84;;;-2.32;100.00
12172;BME280;6149;52.418;13.668;2023-02-10T04:07:10;102836.00;;;-2.33;100.00
12172;BME280;6149;52.418;13.668;2023-02-10T04:09:37;102832.22;;;-2.17;100.00
12172;BME280;6149;52.418;13.668;2023-02-10T04:12:05;102840.78;;;-2.20;100.00
12172;BME280;6149;52.418;13.668;2023-02-10T04:14:32;102836.69;;;-2.13;100.00
12172;BME280;6149;52.418;13.668;2023-02-10T04:16:58;102846.19;;;-2.14;100.00
12172;BME280;6149;52.418;13.668;2023-02-10T04:19:25;102835.97;;;-2.09;100.00
12172;BME280;6149;52.418;13.668;2023-02-10T04:21:52;102837.78;;;-2.07;100.00
12172;BME280;6149;52.418;13.668;2023-02-10T04:24:18;102830.28;;;-1.99;100.00
12172;BME280;6149;52.418;13.668;2023-02-10T04:26:45;102831.66;;;-1.83;100.00
12172;BME280;6149;52.418;13.668;2023-02-10T04:29:13;102830.00;;;-1.81;100.00
12172;BME280;6149;52.418;13.668;2023-02-10T04:31:40;102830.25;;;-1.74;100.00
12172;BME280;6149;52.418;13.668;2023-02-10T04:34:06;102833.88;;;-1.69;100.00
12172;BME280;6149;52.418;13.668;2023-02-10T04:36:33;102835.72;;;-1.66;100.00
12172;BME280;6149;52.418;13.668;2023-02-10T04:38:59;102821.19;;;-1.61;100.00
12172;BME280;6149;52.418;13.668;2023-02-10T04:41:26;102814.34;;;-1.59;100.00
12172;BME280;6149;52.418;13.668;2023-02-10T04:43:52;102819.66;;;-1.54;100.00
12172;BME280;6149;52.418;13.668;2023-02-10T04:46:20;102805.31;;;-1.43;100.00
12172;BME280;6149;52.418;13.668;2023-02-10T04:48:47;102811.56;;;-1.37;100.00
12172;BME280;6149;52.418;13.668;2023-02-10T04:51:13;102811.56;;;-1.37;100.00
12172;BME280;6149;52.418;13.668;2023-02-10T04:53:40;102815.34;;;-1.27;100.00
12172;BME280;6149;52.418;13.668;2023-02-10T04:56:09;102821.47;;;-1.25;100.00
12172;BME280;6149;52.418;13.668;2023-02-10T04:58:36;102828.84;;;-1.09;100.00
12172;BME280;6149;52.418;13.668;2023-02-10T05:01:03;102829.00;;;-1.04;100.00
12172;BME280;6149;52.418;13.668;2023-02-10T05:03:31;102823.75;;;-1.06;100.00
12172;BME280;6149;52.418;13.668;2023-02-10T05:05:58;102834.09;;;-1.07;100.00
12172;BME280;6149;52.418;13.668;2023-02-10T05:08:24;102822.34;;;-0.96;100.00
12172;BME280;6149;52.418;13.668;2023-02-10T05:10:52;102848.28;;;-0.96;100.00
12172;BME280;6149;52.418;13.668;2023-02-10T05:13:19;102843.25;;;-0.91;100.00
12172;BME280;6149;52.418;13.668;2023-02-10T05:15:46;102844.91;;;-0.93;100.00
12172;BME280;6149;52.418;13.668;2023-02-10T05:18:14;102838.78;;;-0.95;100.00
12172;BME280;6149;52.418;13.668;2023-02-10T05:20:42;102845.78;;;-0.93;100.00
12172;BME280;6149;52.418;13.668;2023-02-10T05:23:08;102847.69;;;-0.87;100.00
12172;BME280;6149;52.418;13.668;2023-02-10T05:25:36;102844.59;;;-0.76;100.00
12172;BME280;6149;52.418;13.668;2023-02-10T05:28:03;102838.56;;;-0.73;100.00
12172;BME280;6149;52.418;13.668;2023-02-10T05:30:32;102840.44;;;-0.69;100.00
12172;BME280;6149;52.418;13.668;2023-02-10T05:32:59;102840.66;;;-0.61;100.00
12172;BME280;6149;52.418;13.668;2023-02-10T05:35:26;102830.41;;;-0.57;100.00
12172;BME280;6149;52.418;13.668;2023-02-10T05:37:54;102838.97;;;-0.59;100.00
12172;BME280;6149;52.418;13.668;2023-02-10T05:40:23;102840.09;;;-0.51;100.00
12172;BME280;6149;52.418;13.668;2023-02-10T05:42:50;102844.63;;;-0.44;100.00
12172;BME280;6149;52.418;13.668;2023-02-10T05:45:16;102846.13;;;-0.52;100.00
12172;BME280;6149;52.418;13.668;2023-02-10T05:47:44;102855.75;;;-0.48;100.00
12172;BME280;6149;52.418;13.668;2023-02-10T05:50:12;102858.38;;;-0.48;100.00
12172;BME280;6149;52.418;13.668;2023-02-10T05:52:40;102856.38;;;-0.57;100.00
12172;BME280;6149;52.418;13.668;2023-02-10T05:55:08;102854.06;;;-0.48;100.00
12172;BME280;6149;52.418;13.668;2023-02-10T05:57:35;102845.72;;;-0.35;100.00
12172;BME280;6149;52.418;13.668;2023-02-10T06:00:02;102861.06;;;-0.45;100.00
12172;BME280;6149;52.418;13.668;2023-02-10T06:02:31;102858.97;;;-0.57;100.00
12172;BME280;6149;52.418;13.668;2023-02-10T06:04:57;102860.47;;;-0.65;100.00
12172;BME280;6149;52.418;13.668;2023-02-10T06:07:25;102849.28;;;-0.62;100.00
12172;BME280;6149;52.418;13.668;2023-02-10T06:09:53;102864.03;;;-0.61;100.00
12172;BME280;6149;52.418;13.668;2023-02-10T06:12:21;102870.13;;;-0.61;100.00
12172;BME280;6149;52.418;13.668;2023-02-10T06:14:48;102870.13;;;-0.61;100.00
12172;BME280;6149;52.418;13.668;2023-02-10T06:17:15;102878.69;;;-0.63;100.00
12172;BME280;6149;52.418;13.668;2023-02-10T06:19:43;102877.81;;;-0.64;100.00
12172;BME280;6149;52.418;13.668;2023-02-10T06:22:10;102869.19;;;-0.63;100.00
12172;BME280;6149;52.418;13.668;2023-02-10T06:24:37;102871.03;;;-0.59;100.00
12172;BME280;6149;52.418;13.668;2023-02-10T06:27:03;102880.50;;;-0.61;100.00
12172;BME280;6149;52.418;13.668;2023-02-10T06:29:33;102890.56;;;-0.72;100.00
12172;BME280;6149;52.418;13.668;2023-02-10T06:32:00;102885.31;;;-0.73;100.00
12172;BME280;6149;52.418;13.668;2023-02-10T06:34:26;102893.13;;;-0.73;100.00
12172;BME280;6149;52.418;13.668;2023-02-10T06:36:53;102895.69;;;-0.75;100.00
12172;BME280;6149;52.418;13.668;2023-02-10T06:39:20;102906.69;;;-0.83;100.00
12172;BME280;6149;52.418;13.668;2023-02-10T06:41:48;102904.00;;;-0.86;100.00
12172;BME280;6149;52.418;13.668;2023-02-10T06:44:15;102902.19;;;-0.89;100.00
12172;BME280;6149;52.418;13.668;2023-02-10T06:46:45;102904.00;;;-0.86;100.00
12172;BME280;6149;52.418;13.668;2023-02-10T06:49:11;102892.19;;;-0.77;100.00
12172;BME280;6149;52.418;13.668;2023-02-10T06:51:43;102897.19;;;-0.83;100.00
12172;BME280;6149;52.418;13.668;2023-02-10T06:54:10;102907.47;;;-0.86;100.00
12172;BME280;6149;52.418;13.668;2023-02-10T06:56:37;102919.03;;;-0.76;100.00
12172;BME280;6149;52.418;13.668;2023-02-10T06:59:08;102923.84;;;-0.88;100.00
12172;BME280;6149;52.418;13.668;2023-02-10T07:01:36;102921.97;;;-0.92;100.00
12172;BME280;6149;52.418;13.668;2023-02-10T07:04:05;102928.09;;;-0.90;100.00
12172;BME280;6149;52.418;13.668;2023-02-10T07:06:32;102931.53;;;-0.91;100.00
12172;BME280;6149;52.418;13.668;2023-02-10T07:08:59;102935.78;;;-0.93;100.00
12172;BME280;6149;52.418;13.668;2023-02-10T07:11:26;102922.75;;;-0.95;100.00
12172;BME280;6149;52.418;13.668;2023-02-10T07:13:52;102927.94;;;-0.95;100.00
12172;BME280;6149;52.418;13.668;2023-02-10T07:16:20;102925.41;;;-0.93;100.00
12172;BME280;6149;52.418;13.668;2023-02-10T07:18:48;102925.41;;;-0.93;100.00
12172;BME280;6149;52.418;13.668;2023-02-10T07:21:16;102931.53;;;-0.91;100.00
12172;BME280;6149;52.418;13.668;2023-02-10T07:23:43;102928.09;;;-0.90;100.00
12172;BME280;6149;52.418;13.668;2023-02-10T07:26:10;102919.56;;;-0.86;100.00
12172;BME280;6149;52.418;13.668;2023-02-10T07:28:37;102920.56;;;-0.83;100.00
12172;BME280;6149;52.418;13.668;2023-02-10T07:31:06;102926.81;;;-0.76;100.00
12172;BME280;6149;52.418;13.668;2023-02-10T07:33:33;102927.13;;;-0.65;100.00
12172;BME280;6149;52.418;13.668;2023-02-10T07:36:00;102929.16;;;-0.55;100.00
12172;BME280;6149;52.418;13.668;2023-02-10T07:38:31;102932.66;;;-0.55;100.00
12172;BME280;6149;52.418;13.668;2023-02-10T07:41:00;102940.59;;;-0.50;100.00
12172;BME280;6149;52.418;13.668;2023-02-10T07:43:30;102938.47;;;-0.34;100.00
12172;BME280;6149;52.418;13.668;2023-02-10T07:45:57;102926.00;;;-0.15;100.00
12172;BME280;6149;52.418;13.668;2023-02-10T07:48:27;102926.81;;;-0.18;100.00
12172;BME280;6149;52.418;13.668;2023-02-10T07:50:54;102936.44;;;-0.14;100.00
12172;BME280;6149;52.418;13.668;2023-02-10T07:53:21;102940.94;;;-0.08;100.00
12172;BME280;6149;52.418;13.668;2023-02-10T07:55:48;102938.97;;;0.15;100.00
12172;BME280;6149;52.418;13.668;2023-02-10T07:58:15;102948.63;;;0.19;100.00
12172;BME280;6149;52.418;13.668;2023-02-10T08:00:42;102947.81;;;0.21;100.00
12172;BME280;6149;52.418;13.668;2023-02-10T08:03:14;102941.91;;;0.27;100.00
12172;BME280;6149;52.418;13.668;2023-02-10T08:05:41;102944.56;;;0.28;100.00
12172;BME280;6149;52.418;13.668;2023-02-10T08:08:09;102951.16;;;0.49;100.00
12172;BME280;6149;52.418;13.668;2023-02-10T08:10:37;102952.88;;;0.48;100.00
12172;BME280;6149;52.418;13.668;2023-02-10T08:13:06;102957.56;;;0.61;100.00
12172;BME280;6149;52.418;13.668;2023-02-10T08:15:35;102968.06;;;0.64;100.00
12172;BME280;6149;52.418;13.668;2023-02-10T08:18:02;102971.78;;;0.76;100.00
12172;BME280;6149;52.418;13.668;2023-02-10T08:20:29;102969.44;;;0.85;100.00
12172;BME280;6149;52.418;13.668;2023-02-10T08:22:56;102964.69;;;1.03;100.00
12172;BME280;6149;52.418;13.668;2023-02-10T08:25:24;102968.00;;;0.97;100.00
12172;BME280;6149;52.418;13.668;2023-02-10T08:27:51;102973.13;;;0.94;100.00
12172;BME280;6149;52.418;13.668;2023-02-10T08:30:19;102963.84;;;1.04;100.00
12172;BME280;6149;52.418;13.668;2023-02-10T08:32:48;102978.63;;;1.05;100.00
12172;BME280;6149;52.418;13.668;2023-02-10T08:35:14;102976.97;;;1.09;100.00
12172;BME280;6149;52.418;13.668;2023-02-10T08:37:43;102984.28;;;1.25;100.00
12172;BME280;6149;52.418;13.668;2023-02-10T08:40:14;102993.84;;;1.24;100.00
12172;BME280;6149;52.418;13.668;2023-02-10T08:42:42;102989.69;;;1.32;100.00
12172;BME280;6149;52.418;13.668;2023-02-10T08:45:10;102989.03;;;1.41;100.00
12172;BME280;6149;52.418;13.668;2023-02-10T08:47:38;102995.22;;;1.46;100.00
12172;BME280;6149;52.418;13.668;2023-02-10T08:50:07;102983.38;;;1.60;100.00
12172;BME280;6149;52.418;13.668;2023-02-10T08:52:34;102978.34;;;1.70;100.00
12172;BME280;6149;52.418;13.668;2023-02-10T08:55:01;102989.69;;;1.72;100.00
12172;BME280;6149;52.418;13.668;2023-02-10T08:57:27;102990.59;;;1.72;100.00
12172;BME280;6149;52.418;13.668;2023-02-10T08:59:54;102993.53;;;1.89;100.00
12172;BME280;6149;52.418;13.668;2023-02-10T09:02:21;102981.34;;;1.88;100.00
12172;BME280;6149;52.418;13.668;2023-02-10T09:04:49;102979.06;;;2.03;100.00
12172;BME280;6149;52.418;13.668;2023-02-10T09:07:15;102970.44;;;2.07;100.00
12172;BME280;6149;52.418;13.668;2023-02-10T09:09:43;102968.03;;;2.16;100.00
12172;BME280;6149;52.418;13.668;2023-02-10T09:12:10;102966.41;;;2.24;100.00
12172;BME280;6149;52.418;13.668;2023-02-10T09:14:37;102989.88;;;2.23;100.00
12172;BME280;6149;52.418;13.668;2023-02-10T09:17:05;102974.41;;;2.32;100.00
12172;BME280;6149;52.418;13.668;2023-02-10T09:19:33;102981.53;;;2.41;100.00
12172;BME280;6149;52.418;13.668;2023-02-10T09:22:05;102983.56;;;2.55;100.00
12172;BME280;6149;52.418;13.668;2023-02-10T09:24:32;102984.75;;;2.74;100.00
12172;BME280;6149;52.418;13.668;2023-02-10T09:27:00;102979.78;;;2.89;100.00
12172;BME280;6149;52.418;13.668;2023-02-10T09:29:28;102991.13;;;2.90;100.00
12172;BME280;6149;52.418;13.668;2023-02-10T09:31:57;102993.09;;;3.05;100.00
12172;BME280;6149;52.418;13.668;2023-02-10T09:34:26;102990.47;;;3.05;100.00
12172;BME280;6149;52.418;13.668;2023-02-10T09:36:55;102991.66;;;3.23;100.00
12172;BME280;6149;52.418;13.668;2023-02-10T09:39:27;102984.88;;;3.36;100.00
12172;BME280;6149;52.418;13.668;2023-02-10T09:41:57;102988.34;;;3.36;100.00
12172;BME280;6149;52.418;13.668;2023-02-10T09:44:33;102987.38;;;3.27;100.00
12172;BME280;6149;52.418;13.668;2023-02-10T09:47:30;102992.72;;;3.38;100.00
12172;BME280;6149;52.418;13.668;2023-02-10T09:50:39;102992.13;;;3.54;100.00
12172;BME280;6149;52.418;13.668;2023-02-10T09:53:16;102999.25;;;3.65;100.00
12172;BME280;6149;52.418;13.668;2023-02-10T09:55:54;103004.66;;;3.79;100.00
12172;BME280;6149;52.418;13.668;2023-02-10T09:58:30;103010.06;;;3.91;100.00
12172;BME280;6149;52.418;13.668;2023-02-10T10:01:02;103010.88;;;3.87;100.00
12172;BME280;6149;52.418;13.668;2023-02-10T10:03:40;103007.56;;;3.99;100.00
12172;BME280;6149;52.418;13.668;2023-02-10T10:06:17;103006.81;;;4.12;100.00
12172;BME280;6149;52.418;13.668;2023-02-10T10:09:02;103009.66;;;4.29;100.00
12172;BME280;6149;52.418;13.668;2023-02-10T10:11:38;103015.78;;;4.29;100.00
12172;BME280;6149;52.418;13.668;2023-02-10T10:14:18;103018.59;;;4.45;100.00
12172;BME280;6149;52.418;13.668;2023-02-10T10:17:06;103022.94;;;4.47;100.00
12172;BME280;6149;52.418;13.668;2023-02-10T10:19:49;103017.03;;;4.65;98.82
12172;BME280;6149;52.418;13.668;2023-02-10T10:22:32;103034.41;;;4.57;99.54
12172;BME280;6149;52.418;13.668;2023-02-10T10:25:40;103033.59;;;4.61;100.00
12172;BME280;6149;52.418;13.668;2023-02-10T10:28:25;103031.09;;;4.73;99.13
12172;BME280;6149;52.418;13.668;2023-02-10T10:31:09;103028.50;;;4.75;99.16
12172;BME280;6149;52.418;13.668;2023-02-10T10:33:49;103026.72;;;4.72;100.00
12172;BME280;6149;52.418;13.668;2023-02-10T10:36:20;103026.69;;;4.70;99.27
12172;BME280;6149;52.418;13.668;2023-02-10T10:38:51;103019.75;;;4.73;99.34
12172;BME280;6149;52.418;13.668;2023-02-10T10:41:26;103025.03;;;4.77;99.12
12172;BME280;6149;52.418;13.668;2023-02-10T10:43:59;103036.31;;;4.70;100.00
12172;BME280;6149;52.418;13.668;2023-02-10T10:46:28;103020.63;;;4.73;98.97
12172;BME280;6149;52.418;13.668;2023-02-10T10:48:59;103025.91;;;4.79;99.73
12172;BME280;6149;52.418;13.668;2023-02-10T10:51:26;103020.50;;;4.64;100.00
12172;BME280;6149;52.418;13.668;2023-02-10T10:53:55;103023.06;;;4.56;99.86
12172;BME280;6149;52.418;13.668;2023-02-10T10:56:33;103010.03;;;4.64;99.51
12172;BME280;6149;52.418;13.668;2023-02-10T10:59:16;103012.63;;;4.61;100.00
12172;BME280;6149;52.418;13.668;2023-02-10T11:01:46;103003.03;;;4.61;100.00
12172;BME280;6149;52.418;13.668;2023-02-10T11:04:17;103002.22;;;4.67;100.00
12172;BME280;6149;52.418;13.668;2023-02-10T11:06:47;103004.78;;;4.64;100.00
12172;BME280;6149;52.418;13.668;2023-02-10T11:09:26;103007.25;;;4.49;100.00
12172;BME280;6149;52.418;13.668;2023-02-10T11:12:01;103007.28;;;4.53;100.00
12172;BME280;6149;52.418;13.668;2023-02-10T11:14:37;103003.78;;;4.51;100.00
12172;BME280;6149;52.418;13.668;2023-02-10T11:17:17;103006.50;;;4.60;100.00
12172;BME280;6149;52.418;13.668;2023-02-10T11:19:53;103010.03;;;4.64;100.00
12172;BME280;6149;52.418;13.668;2023-02-10T11:22:23;102998.66;;;4.62;100.00
12172;BME280;6149;52.418;13.668;2023-02-10T11:24:51;103003.00;;;4.60;100.00
12172;BME280;6149;52.418;13.668;2023-02-10T11:27:19;103007.31;;;4.56;100.00
12172;BME280;6149;52.418;13.668;2023-02-10T11:29:50;103006.59;;;4.69;100.00
12172;BME280;6149;52.418;13.668;2023-02-10T11:32:20;103000.41;;;4.63;100.00
12172;BME280;6149;52.418;13.668;2023-02-10T11:34:51;102990.81;;;4.65;100.00
12172;BME280;6149;52.418;13.668;2023-02-10T11:37:22;102984.84;;;4.78;100.00
12172;BME280;6149;52.418;13.668;2023-02-10T11:39:53;102983.09;;;4.79;100.00
12172;BME280;6149;52.418;13.668;2023-02-10T11:42:25;102983.16;;;4.88;100.00
12172;BME280;6149;52.418;13.668;2023-02-10T11:44:58;102983.13;;;4.85;100.00
12172;BME280;6149;52.418;13.668;2023-02-10T11:47:27;102977.97;;;4.92;100.00
12172;BME280;6149;52.418;13.668;2023-02-10T11:49:56;102983.25;;;4.98;99.24
12172;BME280;6149;52.418;13.668;2023-02-10T11:52:26;102977.19;;;5.04;99.61
12172;BME280;6149;52.418;13.668;2023-02-10T11:54:55;102982.41;;;5.01;99.75
12172;BME280;6149;52.418;13.668;2023-02-10T11:57:30;102988.66;;;5.15;99.65
12172;BME280;6149;52.418;13.668;2023-02-10T12:00:26;102982.56;;;5.21;98.62
12172;BME280;6149;52.418;13.668;2023-02-10T12:03:17;102981.81;;;5.37;97.98
12172;BME280;6149;52.418;13.668;2023-02-10T12:06:01;102975.63;;;5.29;97.81
12172;BME280;6149;52.418;13.668;2023-02-10T12:08:38;102989.63;;;5.29;98.44
12172;BME280;6149;52.418;13.668;2023-02-10T12:11:14;102995.81;;;5.37;98.17
12172;BME280;6149;52.418;13.668;2023-02-10T12:13:52;102988.84;;;5.44;97.93
12172;BME280;6149;52.418;13.668;2023-02-10T12:16:33;102982.78;;;5.57;97.07
12172;BME280;6149;52.418;13.668;2023-02-10T12:19:08;102978.44;;;5.59;97.32
12172;BME280;6149;52.418;13.668;2023-02-10T12:22:01;102965.31;;;5.55;97.06
12172;BME280;6149;52.418;13.668;2023-02-10T12:24:49;102967.09;;;5.66;96.11
12172;BME280;6149;52.418;13.668;2023-02-10T12:27:33;102965.38;;;5.71;95.37
12172;BME280;6149;52.418;13.668;2023-02-10T12:30:19;102968.88;;;5.69;95.42
12172;BME280;6149;52.418;13.668;2023-02-10T12:33:02;102979.31;;;5.60;96.30
12172;BME280;6149;52.418;13.668;2023-02-10T12:35:55;102977.59;;;5.66;96.19
12172;BME280;6149;52.418;13.668;2023-02-10T12:38:35;102965.31;;;5.59;96.67
12172;BME280;6149;52.418;13.668;2023-02-10T12:41:18;102959.28;;;5.79;95.51
12172;BME280;6149;52.418;13.668;2023-02-10T12:43:59;102953.13;;;5.70;94.75
12172;BME280;6149;52.418;13.668;2023-02-10T12:46:38;102959.22;;;5.68;95.25
12172;BME280;6149;52.418;13.668;2023-02-10T12:49:19;102961.00;;;5.69;94.45
12172;BME280;6149;52.418;13.668;2023-02-10T12:52:00;102963.63;;;5.69;95.88
12172;BME280;6149;52.418;13.668;2023-02-10T12:54:36;102958.38;;;5.74;94.86
12172;BME280;6149;52.418;13.668;2023-02-10T12:57:12;102960.13;;;5.71;93.87
12172;BME280;6149;52.418;13.668;2023-02-10T12:59:48;102950.50;;;5.72;95.18
12172;BME280;6149;52.418;13.668;2023-02-10T13:02:26;102951.31;;;5.59;94.88
12172;BME280;6149;52.418;13.668;2023-02-10T13:05:02;102956.59;;;5.68;95.84
12172;BME280;6149;52.418;13.668;2023-02-10T13:07:37;102954.84;;;5.67;95.65